THA25 VABB-VNKT
Flight info
| Callsign | THA25 |
|---|---|
| Flight time | 2h 6m |
| Altitude | 41000 |
| Route | ANOLI2A KAKPO Z4 BPL G590 OMUPA DCT SIMRA SMRA1D |
| Aircraft | A359/H-SDE2E3GHIJ3J4J5LM1ORWXY/LB1D1 |
Departure
| Time | 2026-04-30 09:44 |
|---|---|
| Airport | Chhatrapati Shivaji Maharaj International Airport (VABB) |
Arrival
| Time | 2026-04-30 11:51 |
|---|---|
| Airport | Tribhuvan International Airport (VNKT) |
| Time | Latitude | Longitude | Altitude | Speed | Heading |
|---|---|---|---|---|---|
| 2026-04-30 09:13 | 19.09532 | 72.87757 | 55 ft | 0 kts | 281° |
| 2026-04-30 09:38 | 19.09531 | 72.87760 | 76 ft | 3 kts | 280° |
| 2026-04-30 09:38 | 19.09529 | 72.87787 | 50 ft | 4 kts | 263° |
| 2026-04-30 09:38 | 19.09535 | 72.87814 | 49 ft | 4 kts | 243° |
| 2026-04-30 09:39 | 19.09550 | 72.87838 | 47 ft | 4 kts | 223° |
| 2026-04-30 09:39 | 19.09572 | 72.87854 | 49 ft | 4 kts | 205° |
| 2026-04-30 09:39 | 19.09577 | 72.87857 | 47 ft | 0 kts | 203° |
| 2026-04-30 09:41 | 19.09543 | 72.87841 | 51 ft | 12 kts | 203° |
| 2026-04-30 09:41 | 19.09457 | 72.87820 | 48 ft | 14 kts | 185° |
| 2026-04-30 09:41 | 19.09363 | 72.87784 | 52 ft | 15 kts | 205° |
| 2026-04-30 09:42 | 19.09258 | 72.87758 | 49 ft | 17 kts | 184° |
| 2026-04-30 09:42 | 19.09145 | 72.87779 | 52 ft | 17 kts | 148° |
| 2026-04-30 09:42 | 19.09044 | 72.87804 | 49 ft | 7 kts | 178° |
| 2026-04-30 09:42 | 19.09000 | 72.87806 | 50 ft | 8 kts | 178° |
| 2026-04-30 09:43 | 19.08937 | 72.87808 | 50 ft | 10 kts | 178° |
| 2026-04-30 09:43 | 19.08890 | 72.87772 | 48 ft | 9 kts | 253° |
| 2026-04-30 09:43 | 19.08885 | 72.87699 | 49 ft | 11 kts | 269° |
| 2026-04-30 09:43 | 19.08883 | 72.87582 | 48 ft | 31 kts | 269° |
| 2026-04-30 09:44 | 19.08876 | 72.87089 | 53 ft | 101 kts | 269° |
| 2026-04-30 09:44 | 19.08861 | 72.86144 | 60 ft | 158 kts | 267° |
| 2026-04-30 09:44 | 19.08848 | 72.84943 | 627 ft | 164 kts | 267° |
| 2026-04-30 09:44 | 19.08838 | 72.83755 | 1448 ft | 160 kts | 268° |
| 2026-04-30 09:45 | 19.08815 | 72.82485 | 1801 ft | 185 kts | 267° |
| 2026-04-30 09:45 | 19.08797 | 72.81021 | 2149 ft | 209 kts | 268° |
| 2026-04-30 09:45 | 19.08776 | 72.79451 | 2826 ft | 216 kts | 269° |
| 2026-04-30 09:45 | 19.08793 | 72.77846 | 3514 ft | 221 kts | 276° |
| 2026-04-30 09:46 | 19.09276 | 72.76310 | 4198 ft | 224 kts | 303° |
| 2026-04-30 09:46 | 19.10435 | 72.75231 | 4951 ft | 226 kts | 332° |
| 2026-04-30 09:46 | 19.11967 | 72.74853 | 5606 ft | 236 kts | 351° |
| 2026-04-30 09:46 | 19.13680 | 72.74746 | 5958 ft | 257 kts | 353° |
| 2026-04-30 09:47 | 19.15510 | 72.74676 | 6442 ft | 268 kts | 353° |
| 2026-04-30 09:47 | 19.17392 | 72.74598 | 7092 ft | 272 kts | 353° |
| 2026-04-30 09:47 | 19.19301 | 72.74509 | 7764 ft | 277 kts | 353° |
| 2026-04-30 09:47 | 19.21243 | 72.74411 | 8485 ft | 281 kts | 353° |
| 2026-04-30 09:48 | 19.23211 | 72.74307 | 9200 ft | 285 kts | 353° |
| 2026-04-30 09:48 | 19.25197 | 72.74200 | 9671 ft | 287 kts | 353° |
| 2026-04-30 09:48 | 19.27201 | 72.74090 | 9814 ft | 289 kts | 353° |
| 2026-04-30 09:48 | 19.29225 | 72.74139 | 9838 ft | 296 kts | 5° |
| 2026-04-30 09:49 | 19.31153 | 72.74947 | 9890 ft | 305 kts | 31° |
| 2026-04-30 09:49 | 19.32849 | 72.76385 | 10091 ft | 322 kts | 38° |
| 2026-04-30 09:49 | 19.34575 | 72.78009 | 10364 ft | 342 kts | 39° |
| 2026-04-30 09:49 | 19.36388 | 72.79725 | 10670 ft | 358 kts | 39° |
| 2026-04-30 09:50 | 19.38293 | 72.81518 | 10984 ft | 372 kts | 39° |
| 2026-04-30 09:50 | 19.40225 | 72.83332 | 11498 ft | 378 kts | 39° |
| 2026-04-30 09:50 | 19.42199 | 72.85182 | 12127 ft | 380 kts | 39° |
| 2026-04-30 09:50 | 19.44171 | 72.87056 | 12764 ft | 383 kts | 41° |
| 2026-04-30 09:51 | 19.45864 | 72.89259 | 13408 ft | 389 kts | 57° |
| 2026-04-30 09:51 | 19.46882 | 72.91926 | 13995 ft | 394 kts | 73° |
| 2026-04-30 09:51 | 19.47503 | 72.94767 | 14523 ft | 397 kts | 76° |
| 2026-04-30 09:51 | 19.48074 | 72.97652 | 14984 ft | 403 kts | 76° |
| 2026-04-30 09:52 | 19.48652 | 73.00566 | 15502 ft | 405 kts | 76° |
| 2026-04-30 09:52 | 19.49235 | 73.03470 | 16006 ft | 409 kts | 76° |
| 2026-04-30 09:52 | 19.49834 | 73.06428 | 16534 ft | 411 kts | 76° |
| 2026-04-30 09:52 | 19.50449 | 73.09402 | 17058 ft | 414 kts | 75° |
| 2026-04-30 09:53 | 19.51082 | 73.12389 | 17575 ft | 417 kts | 75° |
| 2026-04-30 09:53 | 19.51721 | 73.15401 | 18112 ft | 420 kts | 75° |
| 2026-04-30 09:53 | 19.52364 | 73.18434 | 18563 ft | 423 kts | 75° |
| 2026-04-30 09:53 | 19.53010 | 73.21490 | 19020 ft | 426 kts | 75° |
| 2026-04-30 09:54 | 19.53659 | 73.24561 | 19479 ft | 429 kts | 75° |
| 2026-04-30 09:54 | 19.54313 | 73.27659 | 19972 ft | 432 kts | 74° |
| 2026-04-30 09:54 | 19.54972 | 73.30783 | 20470 ft | 436 kts | 74° |
| 2026-04-30 09:54 | 19.55635 | 73.33935 | 20892 ft | 441 kts | 74° |
| 2026-04-30 09:55 | 19.56181 | 73.37109 | 21390 ft | 447 kts | 79° |
| 2026-04-30 09:55 | 19.56544 | 73.40395 | 21905 ft | 450 kts | 80° |
| 2026-04-30 09:55 | 19.56869 | 73.43710 | 22407 ft | 454 kts | 80° |
| 2026-04-30 09:55 | 19.57193 | 73.47049 | 22919 ft | 457 kts | 80° |
| 2026-04-30 09:56 | 19.57523 | 73.50422 | 23449 ft | 460 kts | 80° |
| 2026-04-30 09:56 | 19.57854 | 73.53810 | 23890 ft | 464 kts | 80° |
| 2026-04-30 09:56 | 19.58189 | 73.57225 | 24337 ft | 467 kts | 80° |
| 2026-04-30 09:56 | 19.58525 | 73.60659 | 24807 ft | 469 kts | 80° |
| 2026-04-30 09:57 | 19.58865 | 73.64106 | 25294 ft | 470 kts | 80° |
| 2026-04-30 09:57 | 19.59421 | 73.67523 | 25688 ft | 470 kts | 71° |
| 2026-04-30 09:57 | 19.60519 | 73.70774 | 26131 ft | 467 kts | 60° |
| 2026-04-30 09:57 | 19.61988 | 73.73847 | 26597 ft | 468 kts | 57° |
| 2026-04-30 09:58 | 19.63539 | 73.76905 | 27043 ft | 471 kts | 57° |
| 2026-04-30 09:58 | 19.65103 | 73.79974 | 27494 ft | 475 kts | 57° |
| 2026-04-30 09:58 | 19.66655 | 73.83029 | 27923 ft | 478 kts | 57° |
| 2026-04-30 09:58 | 19.68233 | 73.86148 | 28359 ft | 481 kts | 57° |
| 2026-04-30 09:59 | 19.71415 | 73.92453 | 29175 ft | 487 kts | 57° |
| 2026-04-30 09:59 | 19.74688 | 73.98807 | 29942 ft | 491 kts | 53° |
| 2026-04-30 10:00 | 19.79092 | 74.04196 | 30505 ft | 486 kts | 36° |
| 2026-04-30 10:00 | 19.81685 | 74.06513 | 30808 ft | 487 kts | 34° |
| 2026-04-30 10:01 | 19.87021 | 74.11002 | 31372 ft | 491 kts | 33° |
| 2026-04-30 10:01 | 19.89723 | 74.13243 | 31643 ft | 493 kts | 33° |
| 2026-04-30 10:01 | 19.92431 | 74.15500 | 31925 ft | 496 kts | 33° |
| 2026-04-30 10:02 | 19.97866 | 74.20069 | 32441 ft | 500 kts | 34° |
| 2026-04-30 10:02 | 20.00590 | 74.22374 | 32786 ft | 500 kts | 34° |
| 2026-04-30 10:02 | 20.03305 | 74.24680 | 33170 ft | 499 kts | 34° |
| 2026-04-30 10:02 | 20.06011 | 74.26980 | 33503 ft | 498 kts | 34° |
| 2026-04-30 10:03 | 20.08712 | 74.29276 | 33885 ft | 497 kts | 34° |
| 2026-04-30 10:03 | 20.11415 | 74.31574 | 34204 ft | 496 kts | 34° |
| 2026-04-30 10:03 | 20.14111 | 74.33867 | 34547 ft | 495 kts | 34° |
| 2026-04-30 10:03 | 20.16769 | 74.36129 | 34867 ft | 494 kts | 34° |
| 2026-04-30 10:04 | 20.19448 | 74.38408 | 35231 ft | 491 kts | 34° |
| 2026-04-30 10:04 | 20.22112 | 74.40676 | 35597 ft | 489 kts | 34° |
| 2026-04-30 10:04 | 20.24766 | 74.42935 | 35883 ft | 488 kts | 34° |
| 2026-04-30 10:04 | 20.27419 | 74.45194 | 36159 ft | 488 kts | 34° |
| 2026-04-30 10:05 | 20.30067 | 74.47449 | 36448 ft | 487 kts | 34° |
| 2026-04-30 10:05 | 20.32709 | 74.49701 | 36720 ft | 487 kts | 34° |
| 2026-04-30 10:05 | 20.35354 | 74.51957 | 36976 ft | 486 kts | 35° |
| 2026-04-30 10:05 | 20.37992 | 74.54208 | 37277 ft | 485 kts | 35° |
| 2026-04-30 10:06 | 20.40624 | 74.56455 | 37560 ft | 484 kts | 35° |
| 2026-04-30 10:06 | 20.43250 | 74.58698 | 37833 ft | 483 kts | 35° |
| 2026-04-30 10:06 | 20.45869 | 74.60936 | 38100 ft | 482 kts | 35° |
| 2026-04-30 10:06 | 20.48480 | 74.63168 | 38412 ft | 480 kts | 35° |
| 2026-04-30 10:07 | 20.51081 | 74.65393 | 38656 ft | 479 kts | 35° |
| 2026-04-30 10:07 | 20.53650 | 74.67591 | 38854 ft | 479 kts | 35° |
| 2026-04-30 10:07 | 20.56258 | 74.69823 | 39026 ft | 478 kts | 35° |
| 2026-04-30 10:07 | 20.58857 | 74.72048 | 39198 ft | 478 kts | 35° |
| 2026-04-30 10:08 | 20.61425 | 74.74248 | 39361 ft | 478 kts | 36° |
| 2026-04-30 10:08 | 20.64022 | 74.76473 | 39543 ft | 478 kts | 36° |
| 2026-04-30 10:08 | 20.66613 | 74.78695 | 39714 ft | 477 kts | 36° |
| 2026-04-30 10:08 | 20.69206 | 74.80914 | 39876 ft | 477 kts | 35° |
| 2026-04-30 10:09 | 20.71807 | 74.83122 | 40051 ft | 477 kts | 35° |
| 2026-04-30 10:09 | 20.74405 | 74.85320 | 40201 ft | 476 kts | 35° |
| 2026-04-30 10:09 | 20.77005 | 74.87520 | 40353 ft | 476 kts | 35° |
| 2026-04-30 10:09 | 20.79603 | 74.89721 | 40514 ft | 476 kts | 36° |
| 2026-04-30 10:10 | 20.82195 | 74.91920 | 40643 ft | 476 kts | 36° |
| 2026-04-30 10:10 | 20.84790 | 74.94124 | 40789 ft | 476 kts | 36° |
| 2026-04-30 10:10 | 20.87379 | 74.96325 | 40834 ft | 476 kts | 36° |
| 2026-04-30 10:11 | 20.92518 | 75.00700 | 40837 ft | 475 kts | 36° |
| 2026-04-30 10:11 | 20.97698 | 75.05114 | 40837 ft | 475 kts | 36° |
| 2026-04-30 10:12 | 21.02874 | 75.09528 | 40833 ft | 475 kts | 35° |
| 2026-04-30 10:12 | 21.08047 | 75.13943 | 40831 ft | 475 kts | 35° |
| 2026-04-30 10:13 | 21.13179 | 75.18328 | 40835 ft | 475 kts | 35° |
| 2026-04-30 10:13 | 21.18348 | 75.22758 | 40842 ft | 476 kts | 36° |
| 2026-04-30 10:14 | 21.23506 | 75.27211 | 40838 ft | 476 kts | 36° |
| 2026-04-30 10:14 | 21.31237 | 75.33898 | 40840 ft | 476 kts | 36° |
| 2026-04-30 10:15 | 21.36365 | 75.38334 | 40850 ft | 476 kts | 36° |
| 2026-04-30 10:15 | 21.41522 | 75.42799 | 40860 ft | 476 kts | 36° |
| 2026-04-30 10:16 | 21.46679 | 75.47268 | 40849 ft | 476 kts | 36° |
| 2026-04-30 10:17 | 21.54411 | 75.53975 | 40849 ft | 476 kts | 36° |
| 2026-04-30 10:17 | 21.61272 | 75.59936 | 40844 ft | 476 kts | 36° |
| 2026-04-30 10:18 | 21.66421 | 75.64415 | 40843 ft | 476 kts | 36° |
| 2026-04-30 10:19 | 21.74145 | 75.71140 | 40834 ft | 476 kts | 36° |
| 2026-04-30 10:19 | 21.79260 | 75.75596 | 40834 ft | 476 kts | 36° |
| 2026-04-30 10:20 | 21.84411 | 75.80087 | 40829 ft | 476 kts | 35° |
| 2026-04-30 10:20 | 21.92143 | 75.86834 | 40820 ft | 477 kts | 35° |
| 2026-04-30 10:21 | 21.97297 | 75.91339 | 40818 ft | 477 kts | 35° |
| 2026-04-30 10:21 | 22.02454 | 75.95850 | 40807 ft | 477 kts | 35° |
| 2026-04-30 10:22 | 22.07525 | 76.00490 | 40814 ft | 480 kts | 40° |
| 2026-04-30 10:22 | 22.12289 | 76.05545 | 40807 ft | 480 kts | 41° |
| 2026-04-30 10:23 | 22.16965 | 76.10643 | 40801 ft | 481 kts | 41° |
| 2026-04-30 10:23 | 22.21656 | 76.15784 | 40806 ft | 480 kts | 41° |
| 2026-04-30 10:24 | 22.26339 | 76.20911 | 40798 ft | 479 kts | 41° |
| 2026-04-30 10:24 | 22.31030 | 76.26043 | 40796 ft | 479 kts | 41° |
| 2026-04-30 10:25 | 22.35711 | 76.31166 | 40793 ft | 479 kts | 41° |
| 2026-04-30 10:25 | 22.40395 | 76.36299 | 40788 ft | 479 kts | 41° |
| 2026-04-30 10:26 | 22.45046 | 76.41401 | 40787 ft | 479 kts | 41° |
| 2026-04-30 10:26 | 22.49724 | 76.46537 | 40788 ft | 479 kts | 41° |
| 2026-04-30 10:27 | 22.54400 | 76.51678 | 40789 ft | 479 kts | 40° |
| 2026-04-30 10:27 | 22.59062 | 76.56808 | 40777 ft | 478 kts | 40° |
| 2026-04-30 10:28 | 22.63720 | 76.61939 | 40777 ft | 477 kts | 40° |
| 2026-04-30 10:28 | 22.68373 | 76.67069 | 40768 ft | 477 kts | 40° |
| 2026-04-30 10:29 | 22.73027 | 76.72206 | 40766 ft | 477 kts | 40° |
| 2026-04-30 10:29 | 22.77656 | 76.77319 | 40765 ft | 477 kts | 40° |
| 2026-04-30 10:30 | 22.82313 | 76.82470 | 40760 ft | 477 kts | 40° |
| 2026-04-30 10:30 | 22.86967 | 76.87623 | 40765 ft | 478 kts | 40° |
| 2026-04-30 10:31 | 22.91585 | 76.92742 | 40758 ft | 477 kts | 40° |
| 2026-04-30 10:31 | 22.96230 | 76.97895 | 40757 ft | 477 kts | 40° |
| 2026-04-30 10:32 | 23.00880 | 77.03059 | 40755 ft | 477 kts | 40° |
| 2026-04-30 10:32 | 23.05523 | 77.08221 | 40754 ft | 477 kts | 40° |
| 2026-04-30 10:33 | 23.10160 | 77.13382 | 40760 ft | 477 kts | 40° |
| 2026-04-30 10:33 | 23.14769 | 77.18517 | 40760 ft | 477 kts | 40° |
| 2026-04-30 10:34 | 23.19405 | 77.23688 | 40764 ft | 477 kts | 40° |
| 2026-04-30 10:34 | 23.24052 | 77.28875 | 40755 ft | 479 kts | 40° |
| 2026-04-30 10:35 | 23.28552 | 77.34266 | 40749 ft | 486 kts | 49° |
| 2026-04-30 10:35 | 23.32402 | 77.40281 | 40741 ft | 488 kts | 51° |
| 2026-04-30 10:36 | 23.36145 | 77.46454 | 40754 ft | 489 kts | 51° |
| 2026-04-30 10:36 | 23.39866 | 77.52644 | 40764 ft | 489 kts | 51° |
| 2026-04-30 10:37 | 23.43603 | 77.58842 | 40772 ft | 489 kts | 51° |
| 2026-04-30 10:37 | 23.47343 | 77.65031 | 40777 ft | 489 kts | 50° |
| 2026-04-30 10:38 | 23.51068 | 77.71195 | 40778 ft | 490 kts | 50° |
| 2026-04-30 10:38 | 23.54809 | 77.77396 | 40783 ft | 490 kts | 50° |
| 2026-04-30 10:39 | 23.58550 | 77.83607 | 40776 ft | 490 kts | 50° |
| 2026-04-30 10:39 | 23.62283 | 77.89813 | 40777 ft | 489 kts | 50° |
| 2026-04-30 10:40 | 23.66004 | 77.96006 | 40797 ft | 488 kts | 50° |
| 2026-04-30 10:40 | 23.69730 | 78.02210 | 40783 ft | 490 kts | 50° |
| 2026-04-30 10:41 | 23.73468 | 78.08445 | 40779 ft | 491 kts | 50° |
| 2026-04-30 10:41 | 23.77206 | 78.14689 | 40784 ft | 491 kts | 50° |
| 2026-04-30 10:42 | 23.80943 | 78.20940 | 40786 ft | 491 kts | 50° |
| 2026-04-30 10:42 | 23.84680 | 78.27197 | 40789 ft | 491 kts | 50° |
| 2026-04-30 10:43 | 23.88412 | 78.33455 | 40789 ft | 491 kts | 50° |
| 2026-04-30 10:43 | 23.92113 | 78.39668 | 40789 ft | 491 kts | 50° |
| 2026-04-30 10:44 | 23.95846 | 78.45943 | 40796 ft | 491 kts | 50° |
| 2026-04-30 10:44 | 23.99571 | 78.52211 | 40794 ft | 491 kts | 50° |
| 2026-04-30 10:45 | 24.03286 | 78.58476 | 40778 ft | 491 kts | 50° |
| 2026-04-30 10:45 | 24.06980 | 78.64770 | 40784 ft | 491 kts | 50° |
| 2026-04-30 10:46 | 24.10666 | 78.71068 | 40787 ft | 492 kts | 51° |
| 2026-04-30 10:46 | 24.14375 | 78.77401 | 40774 ft | 495 kts | 51° |
| 2026-04-30 10:47 | 24.18093 | 78.83754 | 40772 ft | 496 kts | 50° |
| 2026-04-30 10:47 | 24.21810 | 78.90112 | 40768 ft | 495 kts | 51° |
| 2026-04-30 10:48 | 24.25498 | 78.96432 | 40759 ft | 495 kts | 51° |
| 2026-04-30 10:48 | 24.29208 | 79.02796 | 40759 ft | 496 kts | 51° |
| 2026-04-30 10:49 | 24.32920 | 79.09170 | 40764 ft | 496 kts | 51° |
| 2026-04-30 10:49 | 24.36641 | 79.15566 | 40762 ft | 498 kts | 51° |
| 2026-04-30 10:50 | 24.40364 | 79.21977 | 40755 ft | 498 kts | 51° |
| 2026-04-30 10:50 | 24.44082 | 79.28388 | 40754 ft | 498 kts | 51° |
| 2026-04-30 10:51 | 24.47797 | 79.34804 | 40754 ft | 498 kts | 51° |
| 2026-04-30 10:51 | 24.51492 | 79.41191 | 40754 ft | 498 kts | 51° |
| 2026-04-30 10:52 | 24.55205 | 79.47619 | 40753 ft | 498 kts | 51° |
| 2026-04-30 10:52 | 24.58918 | 79.54055 | 40751 ft | 498 kts | 51° |
| 2026-04-30 10:53 | 24.62630 | 79.60498 | 40750 ft | 498 kts | 51° |
| 2026-04-30 10:53 | 24.66333 | 79.66934 | 40754 ft | 498 kts | 51° |
| 2026-04-30 10:54 | 24.70040 | 79.73383 | 40713 ft | 499 kts | 51° |
| 2026-04-30 10:54 | 24.73733 | 79.79818 | 40711 ft | 500 kts | 51° |
| 2026-04-30 10:55 | 24.77446 | 79.86297 | 40687 ft | 501 kts | 51° |
| 2026-04-30 10:55 | 24.80587 | 79.93226 | 40687 ft | 514 kts | 66° |
| 2026-04-30 10:56 | 24.82536 | 80.00843 | 40701 ft | 519 kts | 70° |
| 2026-04-30 10:56 | 24.84248 | 80.08566 | 40715 ft | 520 kts | 71° |
| 2026-04-30 10:57 | 24.85921 | 80.16250 | 40718 ft | 520 kts | 70° |
| 2026-04-30 10:57 | 24.87629 | 80.23987 | 40739 ft | 520 kts | 70° |
| 2026-04-30 10:58 | 24.89351 | 80.31732 | 40762 ft | 520 kts | 70° |
| 2026-04-30 10:58 | 24.91071 | 80.39472 | 40761 ft | 520 kts | 70° |
| 2026-04-30 10:59 | 24.92787 | 80.47211 | 40769 ft | 520 kts | 70° |
| 2026-04-30 10:59 | 24.94498 | 80.54959 | 40773 ft | 520 kts | 70° |
| 2026-04-30 11:00 | 24.96206 | 80.62711 | 40777 ft | 521 kts | 70° |
| 2026-04-30 11:00 | 24.97901 | 80.70428 | 40777 ft | 521 kts | 70° |
| 2026-04-30 11:01 | 24.99602 | 80.78192 | 40774 ft | 521 kts | 71° |
| 2026-04-30 11:01 | 25.01302 | 80.85969 | 40774 ft | 521 kts | 71° |
| 2026-04-30 11:02 | 25.02997 | 80.93742 | 40772 ft | 521 kts | 70° |
| 2026-04-30 11:02 | 25.04724 | 81.01499 | 40762 ft | 520 kts | 70° |
| 2026-04-30 11:03 | 25.06459 | 81.09251 | 40745 ft | 520 kts | 70° |
| 2026-04-30 11:04 | 25.08754 | 81.19578 | 40751 ft | 521 kts | 70° |
| 2026-04-30 11:04 | 25.10750 | 81.28612 | 40757 ft | 521 kts | 70° |
| 2026-04-30 11:05 | 25.12175 | 81.35075 | 40738 ft | 522 kts | 70° |
| 2026-04-30 11:05 | 25.13891 | 81.42881 | 40735 ft | 523 kts | 70° |
| 2026-04-30 11:06 | 25.15629 | 81.50674 | 40735 ft | 523 kts | 70° |
| 2026-04-30 11:06 | 25.17427 | 81.58456 | 40735 ft | 522 kts | 70° |
| 2026-04-30 11:07 | 25.19223 | 81.66237 | 40744 ft | 522 kts | 70° |
| 2026-04-30 11:07 | 25.21003 | 81.74019 | 40732 ft | 522 kts | 70° |
| 2026-04-30 11:08 | 25.22763 | 81.81757 | 40735 ft | 522 kts | 70° |
| 2026-04-30 11:08 | 25.24527 | 81.89538 | 40735 ft | 522 kts | 70° |
| 2026-04-30 11:09 | 25.26287 | 81.97320 | 40737 ft | 522 kts | 70° |
| 2026-04-30 11:09 | 25.28046 | 82.05118 | 40735 ft | 522 kts | 70° |
| 2026-04-30 11:10 | 25.29799 | 82.12907 | 40733 ft | 522 kts | 70° |
| 2026-04-30 11:10 | 25.31550 | 82.20710 | 40737 ft | 522 kts | 70° |
| 2026-04-30 11:11 | 25.33289 | 82.28509 | 40735 ft | 523 kts | 71° |
| 2026-04-30 11:11 | 25.34962 | 82.36336 | 40735 ft | 523 kts | 71° |
| 2026-04-30 11:12 | 25.36604 | 82.44126 | 40741 ft | 523 kts | 71° |
| 2026-04-30 11:12 | 25.38257 | 82.51950 | 40730 ft | 522 kts | 71° |
| 2026-04-30 11:13 | 25.39912 | 82.59770 | 40718 ft | 522 kts | 71° |
| 2026-04-30 11:13 | 25.41563 | 82.67580 | 40706 ft | 522 kts | 71° |
| 2026-04-30 11:14 | 25.43212 | 82.75401 | 40691 ft | 522 kts | 71° |
| 2026-04-30 11:14 | 25.45101 | 82.83135 | 40693 ft | 516 kts | 63° |
| 2026-04-30 11:15 | 25.48595 | 82.89850 | 40697 ft | 501 kts | 45° |
| 2026-04-30 11:15 | 25.53054 | 82.95763 | 40697 ft | 500 kts | 42° |
| 2026-04-30 11:16 | 25.57659 | 83.01533 | 40712 ft | 500 kts | 42° |
| 2026-04-30 11:16 | 25.62267 | 83.07310 | 40731 ft | 500 kts | 42° |
| 2026-04-30 11:17 | 25.66849 | 83.13111 | 40746 ft | 500 kts | 42° |
| 2026-04-30 11:17 | 25.71416 | 83.18925 | 40759 ft | 501 kts | 43° |
| 2026-04-30 11:18 | 25.76003 | 83.24773 | 40756 ft | 503 kts | 43° |
| 2026-04-30 11:18 | 25.82888 | 83.33503 | 40767 ft | 503 kts | 42° |
| 2026-04-30 11:19 | 25.87557 | 83.39294 | 40762 ft | 503 kts | 42° |
| 2026-04-30 11:19 | 25.92224 | 83.45090 | 40763 ft | 503 kts | 42° |
| 2026-04-30 11:20 | 25.96895 | 83.50919 | 40768 ft | 503 kts | 42° |
| 2026-04-30 11:20 | 26.01544 | 83.56737 | 40773 ft | 504 kts | 42° |
| 2026-04-30 11:21 | 26.06226 | 83.62571 | 40773 ft | 505 kts | 42° |
| 2026-04-30 11:21 | 26.10906 | 83.68348 | 40775 ft | 506 kts | 42° |
| 2026-04-30 11:22 | 26.15620 | 83.74171 | 40774 ft | 507 kts | 42° |
| 2026-04-30 11:22 | 26.20340 | 83.80017 | 40777 ft | 507 kts | 42° |
| 2026-04-30 11:23 | 26.25056 | 83.85872 | 40772 ft | 508 kts | 42° |
| 2026-04-30 11:24 | 26.32123 | 83.94621 | 40781 ft | 508 kts | 42° |
| 2026-04-30 11:24 | 26.36874 | 84.00470 | 40781 ft | 509 kts | 42° |
| 2026-04-30 11:25 | 26.44003 | 84.09276 | 40783 ft | 509 kts | 42° |
| 2026-04-30 11:26 | 26.53497 | 84.21046 | 40788 ft | 510 kts | 42° |
| 2026-04-30 11:26 | 26.58242 | 84.26941 | 40796 ft | 510 kts | 42° |
| 2026-04-30 11:27 | 26.62986 | 84.32841 | 40796 ft | 511 kts | 42° |
| 2026-04-30 11:27 | 26.67734 | 84.38753 | 40810 ft | 511 kts | 42° |
| 2026-04-30 11:28 | 26.72440 | 84.44573 | 39992 ft | 501 kts | 42° |
| 2026-04-30 11:28 | 26.74784 | 84.47464 | 38816 ft | 502 kts | 42° |
| 2026-04-30 11:28 | 26.77140 | 84.50365 | 37455 ft | 505 kts | 42° |
| 2026-04-30 11:29 | 26.79513 | 84.53289 | 35959 ft | 510 kts | 43° |
| 2026-04-30 11:29 | 26.81917 | 84.56254 | 34533 ft | 515 kts | 44° |
| 2026-04-30 11:29 | 26.86644 | 84.62119 | 32813 ft | 505 kts | 45° |
| 2026-04-30 11:30 | 26.91428 | 84.68058 | 31052 ft | 519 kts | 46° |
| 2026-04-30 11:30 | 26.93861 | 84.71081 | 30126 ft | 526 kts | 46° |
| 2026-04-30 11:30 | 26.96299 | 84.74112 | 29059 ft | 533 kts | 46° |
| 2026-04-30 11:31 | 26.98785 | 84.77208 | 28303 ft | 531 kts | 46° |
| 2026-04-30 11:31 | 27.01250 | 84.80269 | 27838 ft | 523 kts | 45° |
| 2026-04-30 11:31 | 27.03712 | 84.83203 | 27713 ft | 508 kts | 44° |
| 2026-04-30 11:31 | 27.06121 | 84.86036 | 27582 ft | 493 kts | 44° |
| 2026-04-30 11:32 | 27.08459 | 84.88790 | 27413 ft | 481 kts | 44° |
| 2026-04-30 11:32 | 27.10739 | 84.91486 | 27198 ft | 470 kts | 44° |
| 2026-04-30 11:32 | 27.13010 | 84.94053 | 26976 ft | 457 kts | 38° |
| 2026-04-30 11:33 | 27.18520 | 84.96899 | 26123 ft | 428 kts | 1° |
| 2026-04-30 11:33 | 27.21388 | 84.96767 | 25686 ft | 412 kts | 342° |
| 2026-04-30 11:33 | 27.24110 | 84.95885 | 25251 ft | 404 kts | 336° |
| 2026-04-30 11:33 | 27.26764 | 84.94886 | 24828 ft | 401 kts | 337° |
| 2026-04-30 11:34 | 27.29413 | 84.93913 | 24411 ft | 397 kts | 338° |
| 2026-04-30 11:34 | 27.32031 | 84.92978 | 23961 ft | 391 kts | 338° |
| 2026-04-30 11:34 | 27.34586 | 84.92087 | 23464 ft | 376 kts | 339° |
| 2026-04-30 11:34 | 27.37037 | 84.91243 | 22989 ft | 361 kts | 339° |
| 2026-04-30 11:35 | 27.39412 | 84.90427 | 22610 ft | 354 kts | 339° |
| 2026-04-30 11:35 | 27.41762 | 84.89619 | 22223 ft | 352 kts | 339° |
| 2026-04-30 11:35 | 27.44099 | 84.88817 | 21833 ft | 350 kts | 339° |
| 2026-04-30 11:35 | 27.46424 | 84.88022 | 21389 ft | 348 kts | 339° |
| 2026-04-30 11:36 | 27.48705 | 84.87244 | 20960 ft | 346 kts | 339° |
| 2026-04-30 11:36 | 27.51008 | 84.86456 | 20545 ft | 347 kts | 339° |
| 2026-04-30 11:36 | 27.53313 | 84.85669 | 20101 ft | 344 kts | 340° |
| 2026-04-30 11:36 | 27.55630 | 84.84981 | 19670 ft | 344 kts | 344° |
| 2026-04-30 11:37 | 27.58002 | 84.84606 | 19239 ft | 346 kts | 352° |
| 2026-04-30 11:37 | 27.60413 | 84.84619 | 18800 ft | 348 kts | 1° |
| 2026-04-30 11:37 | 27.62809 | 84.85032 | 18380 ft | 349 kts | 9° |
| 2026-04-30 11:37 | 27.65135 | 84.85844 | 17898 ft | 351 kts | 18° |
| 2026-04-30 11:38 | 27.67333 | 84.87038 | 17503 ft | 349 kts | 27° |
| 2026-04-30 11:38 | 27.69346 | 84.88570 | 17104 ft | 349 kts | 36° |
| 2026-04-30 11:38 | 27.71138 | 84.90402 | 16704 ft | 348 kts | 44° |
| 2026-04-30 11:38 | 27.72669 | 84.92502 | 16320 ft | 345 kts | 53° |
| 2026-04-30 11:39 | 27.73896 | 84.94790 | 15925 ft | 346 kts | 62° |
| 2026-04-30 11:39 | 27.74828 | 84.97289 | 15585 ft | 344 kts | 70° |
| 2026-04-30 11:39 | 27.75399 | 84.99899 | 15220 ft | 342 kts | 83° |
| 2026-04-30 11:39 | 27.75374 | 85.02558 | 14919 ft | 336 kts | 96° |
| 2026-04-30 11:40 | 27.75101 | 85.05127 | 14787 ft | 325 kts | 98° |
| 2026-04-30 11:40 | 27.74813 | 85.07618 | 14580 ft | 316 kts | 97° |
| 2026-04-30 11:40 | 27.74486 | 85.10060 | 14230 ft | 313 kts | 103° |
| 2026-04-30 11:40 | 27.73811 | 85.12371 | 13945 ft | 308 kts | 112° |
| 2026-04-30 11:41 | 27.72995 | 85.14592 | 13616 ft | 305 kts | 114° |
| 2026-04-30 11:41 | 27.72169 | 85.16787 | 13307 ft | 302 kts | 114° |
| 2026-04-30 11:41 | 27.71356 | 85.18960 | 13007 ft | 300 kts | 114° |
| 2026-04-30 11:41 | 27.70541 | 85.21119 | 12713 ft | 297 kts | 115° |
| 2026-04-30 11:42 | 27.69577 | 85.23134 | 12543 ft | 286 kts | 124° |
| 2026-04-30 11:42 | 27.68423 | 85.24772 | 12426 ft | 275 kts | 136° |
| 2026-04-30 11:42 | 27.67018 | 85.26169 | 12296 ft | 264 kts | 145° |
| 2026-04-30 11:42 | 27.65575 | 85.27392 | 12174 ft | 253 kts | 146° |
| 2026-04-30 11:43 | 27.64232 | 85.28605 | 12059 ft | 243 kts | 139° |
| 2026-04-30 11:43 | 27.63214 | 85.30084 | 11843 ft | 238 kts | 120° |
| 2026-04-30 11:43 | 27.62678 | 85.31836 | 11654 ft | 237 kts | 99° |
| 2026-04-30 11:43 | 27.62679 | 85.33679 | 11435 ft | 235 kts | 79° |
| 2026-04-30 11:44 | 27.63202 | 85.35404 | 11200 ft | 231 kts | 59° |
| 2026-04-30 11:44 | 27.64161 | 85.36830 | 10999 ft | 227 kts | 40° |
| 2026-04-30 11:44 | 27.65440 | 85.37835 | 10758 ft | 222 kts | 22° |
| 2026-04-30 11:44 | 27.66892 | 85.38347 | 10524 ft | 217 kts | 5° |
| 2026-04-30 11:45 | 27.68361 | 85.38359 | 10312 ft | 212 kts | 348° |
| 2026-04-30 11:45 | 27.69755 | 85.37901 | 10128 ft | 204 kts | 332° |
| 2026-04-30 11:45 | 27.70919 | 85.37067 | 10014 ft | 196 kts | 319° |
| 2026-04-30 11:45 | 27.71861 | 85.35887 | 9947 ft | 211 kts | 304° |
| 2026-04-30 11:46 | 27.72510 | 85.34374 | 9909 ft | 217 kts | 287° |
| 2026-04-30 11:46 | 27.72732 | 85.32696 | 9870 ft | 215 kts | 270° |
| 2026-04-30 11:46 | 27.72546 | 85.31090 | 9658 ft | 200 kts | 257° |
| 2026-04-30 11:46 | 27.72183 | 85.29591 | 9228 ft | 197 kts | 253° |
| 2026-04-30 11:47 | 27.71625 | 85.28190 | 8925 ft | 197 kts | 238° |
| 2026-04-30 11:47 | 27.70732 | 85.27063 | 8780 ft | 188 kts | 219° |
| 2026-04-30 11:47 | 27.69658 | 85.26378 | 8606 ft | 173 kts | 201° |
| 2026-04-30 11:47 | 27.68497 | 85.26106 | 8275 ft | 171 kts | 185° |
| 2026-04-30 11:48 | 27.67318 | 85.26239 | 8017 ft | 169 kts | 167° |
| 2026-04-30 11:48 | 27.66245 | 85.26751 | 7800 ft | 167 kts | 149° |
| 2026-04-30 11:48 | 27.65357 | 85.27590 | 7606 ft | 167 kts | 132° |
| 2026-04-30 11:48 | 27.64723 | 85.28683 | 7403 ft | 167 kts | 115° |
| 2026-04-30 11:49 | 27.64359 | 85.29998 | 6787 ft | 186 kts | 97° |
| 2026-04-30 11:49 | 27.64473 | 85.31467 | 6241 ft | 192 kts | 70° |
| 2026-04-30 11:49 | 27.65077 | 85.32850 | 5554 ft | 201 kts | 58° |
| 2026-04-30 11:49 | 27.65980 | 85.34077 | 4939 ft | 204 kts | 41° |
| 2026-04-30 11:50 | 27.67181 | 85.34823 | 4601 ft | 193 kts | 20° |
| 2026-04-30 11:50 | 27.68405 | 85.35346 | 4360 ft | 182 kts | 21° |
| 2026-04-30 11:50 | 27.69488 | 85.35838 | 4354 ft | 147 kts | 21° |
| 2026-04-30 11:50 | 27.70302 | 85.36204 | 4388 ft | 99 kts | 21° |
| 2026-04-30 11:51 | 27.70578 | 85.36318 | 4399 ft | 11 kts | 346° |
| 2026-04-30 11:51 | 27.70597 | 85.36245 | 4398 ft | 17 kts | 238° |
| 2026-04-30 11:51 | 27.70498 | 85.36172 | 4395 ft | 16 kts | 206° |
| 2026-04-30 11:51 | 27.70399 | 85.36125 | 4390 ft | 15 kts | 201° |
| 2026-04-30 11:52 | 27.70308 | 85.36084 | 4387 ft | 13 kts | 201° |
| 2026-04-30 11:52 | 27.70225 | 85.36048 | 4383 ft | 12 kts | 201° |
| 2026-04-30 11:52 | 27.70175 | 85.36025 | 4382 ft | 12 kts | 201° |
| 2026-04-30 11:52 | 27.70079 | 85.35983 | 4364 ft | 10 kts | 201° |
| 2026-04-30 11:53 | 27.70037 | 85.35962 | 4362 ft | 9 kts | 212° |
| 2026-04-30 11:53 | 27.70022 | 85.35923 | 4364 ft | 3 kts | 267° |
| 2026-04-30 11:53 | 27.70023 | 85.35904 | 4366 ft | 4 kts | 274° |
| 2026-04-30 11:53 | 27.70028 | 85.35874 | 4365 ft | 2 kts | 287° |
| 2026-04-30 11:54 | 27.70029 | 85.35871 | 4372 ft | 0 kts | 290° |